Wednesday, June 29, 2016, 7:32 PM EDT

KPOU, Poughkeepsie Dutchess Cty

Location: Wappingers Falls, NY, United States Lat: 41.633
Local Time: 7:32 PM EDT (23:32 GMT) Lon: -73.883
Time Zone: US/Eastern Elev: 167 ft

Show me the last for .
Show Decoded

2016-06-29 18:53 METAR KPOU 292253Z AUTO 30006KT 10SM SCT060 28/14 A2986 RMK AO2 SLP107 T02780139
                 TSNO =
2016-06-29 17:53 METAR KPOU 292153Z AUTO 24009KT 10SM CLR 28/13 A2985 RMK AO2 SLP104 T02830133
                 TSNO =
2016-06-29 16:53 METAR KPOU 292053Z AUTO 26010KT 10SM FEW060 FEW090 29/14 A2985 RMK AO2 SLP103
                 T02940139 58002 TSNO =
2016-06-29 15:53 METAR KPOU 291953Z AUTO 23007KT 10SM SCT060 BKN080 BKN090 29/13 A2985 RMK AO2
                 SLP104 T02890133 TSNO =
2016-06-29 14:53 METAR KPOU 291853Z VRB05KT 10SM FEW095 28/15 A2985 RMK AO2 SLP105 T02830150 =
2016-06-29 13:53 METAR KPOU 291753Z VRB04KT 10SM BKN043 28/16 A2986 RMK AO2 SLP106 T02780161
                 10283 20211 58012 =
2016-06-29 12:53 METAR KPOU 291653Z COR VRB05KT 10SM BKN038 BKN065 27/17 A2987 =
2016-06-29 11:53 METAR KPOU 291553Z VRB05KT 10SM SCT030 BKN110 26/17 A2989 RMK AO2 SLP117
                 T02560167 =
2016-06-29 10:53 METAR KPOU 291453Z 31005KT 10SM OVC037 24/17 A2989 RMK AO2 SLP118 T02440172
                 50002 =
2016-06-29 09:53 METAR KPOU 291353Z 32004KT 10SM FEW016 OVC034 23/18 A2990 RMK AO2 SLP120
                 T02280178 =
2016-06-29 08:53 METAR KPOU 291253Z 00000KT 10SM FEW013 SCT019 22/17 A2990 RMK AO2 SLP120
                 T02220172 =
2016-06-29 07:53 METAR KPOU 291153Z 34003KT 10SM SCT038 21/18 A2989 RMK AO2 SLP116 70061
                 T02110178 10211 20200 53010 =
2016-06-29 07:00 METAR KPOU 291100Z 00000KT 10SM SCT038 21/18 A2988 RMK AO2 T02060183 =
2016-06-29 06:53 METAR KPOU 291053Z COR 05003KT 9SM SCT038 21/18 A2988 =
2016-06-29 05:53 METAR KPOU 290953Z 00000KT 4SM BR OVC003 20/18 A2987 RMK AO2 SLP109 T02000183 =
2016-06-29 05:17 METAR KPOU 290917Z 00000KT 5SM BR BKN003 OVC040 20/18 A2986 RMK AO2 T02000183 =
2016-06-29 05:09 METAR KPOU 290909Z 00000KT 5SM BR SCT003 OVC040 20/18 A2986 RMK AO2 T02000183 =
2016-06-29 04:53 METAR KPOU 290853Z 00000KT 6SM BR BKN003 OVC040 20/18 A2986 RMK AO2 SLP106
                 T02000183 58001 =
2016-06-29 04:49 METAR KPOU 290849Z 00000KT 6SM BR SCT003 OVC040 20/18 A2986 RMK AO2 =
2016-06-29 04:01 METAR KPOU 290801Z 00000KT 6SM BR BKN003 OVC034 20/18 A2986 RMK AO2 T02000183 =
2016-06-29 03:53 METAR KPOU 290753Z 00000KT 5SM BR SCT003 OVC033 20/18 A2986 RMK AO2 SLP109
                 T02000183 =
2016-06-29 03:43 METAR KPOU 290743Z 00000KT 6SM BR BKN003 OVC031 20/18 A2986 RMK AO2 T02000183 =
2016-06-29 03:34 METAR KPOU 290734Z 00000KT 7SM BKN002 OVC031 20/18 A2986 RMK AO2 T02000183 =
2016-06-29 03:02 METAR KPOU 290702Z 00000KT 9SM FEW004 SCT011 OVC029 20/18 A2986 RMK AO2
                 T02000183 =
2016-06-29 02:53 METAR KPOU 290653Z 00000KT 8SM FEW004 SCT011 OVC030 20/18 A2986 RMK AO2 SLP108
                 T02000183 =
2016-06-29 02:43 METAR KPOU 290643Z 00000KT 8SM FEW004 BKN011 OVC030 20/18 A2987 RMK AO2
                 T02000183 =
2016-06-29 02:35 METAR KPOU 290635Z 00000KT 8SM BKN003 OVC011 20/18 A2987 RMK AO2 T02000183 =
2016-06-29 02:23 METAR KPOU 290623Z 00000KT 9SM SCT005 BKN011 OVC120 20/18 A2987 RMK AO2
                 T02000183 =
2016-06-29 01:53 METAR KPOU 290553Z 00000KT 9SM BKN006 BKN012 OVC110 20/18 A2986 RMK AO2 SLP108
                 60061 T02000183 10239 20194 56011 =
2016-06-29 00:53 METAR KPOU 290453Z 00000KT 10SM OVC005 20/18 A2987 RMK AO2 CIG 004V009 SLP110
                 T02000183 402670194 =
2016-06-29 00:46 METAR KPOU 290446Z 00000KT 10SM OVC005 20/18 A2987 RMK AO2 CIG 004V008 T02000183
                 =
2016-06-29 00:07 METAR KPOU 290407Z 29004KT 10SM BKN004 OVC110 20/18 A2987 RMK AO2 T02000183 =
2016-06-28 23:53 METAR KPOU 290353Z 00000KT 10SM SCT004 BKN090 OVC110 20/18 A2987 RMK AO2 RAE46
                 SLP109 P0006 T02000183 =
2016-06-28 22:53 METAR KPOU 290253Z 12003KT 3SM -RA BR FEW009 BKN045 OVC080 20/18 A2989 RMK AO2
                 WSHFT 0150 SLP119 P0052 60055 T02000183 50010 =
2016-06-28 22:48 METAR KPOU 290248Z 11004KT 2SM +RA BR FEW009 BKN047 OVC070 20/18 A2990 RMK AO2
                 WSHFT 0150 P0051 =
2016-06-28 22:34 METAR KPOU 290234Z 15006KT 5SM -RA BR SCT008 OVC038 20/18 A2991 RMK AO2 WSHFT
                 0150 P0044 T02000183 =
2016-06-28 22:27 METAR KPOU 290227Z 12009KT 3SM RA BR BKN040 BKN047 OVC075 20/18 A2991 RMK AO2
                 WSHFT 0150 P0043 T02000183 =
2016-06-28 22:24 METAR KPOU 290224Z 11009KT 1 3/4SM RA BR OVC040 20/18 A2990 RMK AO2 WSHFT 0150
                 P0043 T02000183 =
2016-06-28 22:06 METAR KPOU 290206Z 27013G24KT 1 1/2SM +RA BR FEW018 BKN029 OVC055 20/18 A2990
                 RMK AO2 WSHFT 0150 P0019 T02000178 =
2016-06-28 22:01 METAR KPOU 290201Z 29016G24KT 1 3/4SM +RA FEW018 BKN047 OVC055 21/18 A2990 =
2016-06-28 21:53 METAR KPOU 290153Z 25017G24KT 5SM -RA FEW018 BKN050 OVC110 23/19 A2990 RMK AO2
                 RAB52 PRESRR SLP120 P0003 T02280194 =
2016-06-28 20:53 METAR KPOU 290053Z 14004KT 10SM SCT017 23/19 A2986 RMK AO2 SLP108 T02330194 =
2016-06-28 19:53 METAR KPOU 282353Z VRB04KT 10SM SCT017 24/19 A2986 RMK AO2 SLP106 T02390194
                 10267 20239 58006 =

Support USWX by starting your Amazon purchase here.